SDM185 URWW-UWKD
Flight info
| Callsign | SDM185 |
|---|---|
| Flight time | N/A |
| Altitude | 35000 |
| Route | RODUN1E RODUN R807 UROBO P135 DAFOS T789 SONUM SONUM1T |
| Aircraft | B738/M-SDE2E3FGHIRWXY/LB1 |
Departure
| Time | 2026-05-07 17:32 |
|---|---|
| Airport | Volgograd International Airport (URWW) |
Arrival
| Time | N/A |
|---|---|
| Airport | Kazan International Airport (UWKD) |
| Time | Latitude | Longitude | Altitude | Speed | Heading |
|---|---|---|---|---|---|
| 2026-05-07 17:06 | 48.79052 | 44.35457 | 471 ft | 0 kts | 339° |
| 2026-05-07 17:24 | 48.79047 | 44.35460 | 469 ft | 2 kts | 343° |
| 2026-05-07 17:24 | 48.79037 | 44.35464 | 469 ft | 2 kts | 340° |
| 2026-05-07 17:24 | 48.79026 | 44.35476 | 469 ft | 2 kts | 309° |
| 2026-05-07 17:25 | 48.79018 | 44.35496 | 469 ft | 2 kts | 284° |
| 2026-05-07 17:25 | 48.79017 | 44.35519 | 470 ft | 2 kts | 259° |
| 2026-05-07 17:25 | 48.79019 | 44.35530 | 470 ft | 1 kts | 245° |
| 2026-05-07 17:25 | 48.79021 | 44.35536 | 470 ft | 0 kts | 249° |
| 2026-05-07 17:28 | 48.79020 | 44.35532 | 470 ft | 1 kts | 249° |
| 2026-05-07 17:28 | 48.79010 | 44.35493 | 469 ft | 9 kts | 250° |
| 2026-05-07 17:28 | 48.78979 | 44.35357 | 470 ft | 12 kts | 250° |
| 2026-05-07 17:28 | 48.78948 | 44.35231 | 470 ft | 15 kts | 249° |
| 2026-05-07 17:29 | 48.78891 | 44.35113 | 469 ft | 12 kts | 181° |
| 2026-05-07 17:29 | 48.78809 | 44.35149 | 468 ft | 12 kts | 162° |
| 2026-05-07 17:29 | 48.78719 | 44.35194 | 467 ft | 14 kts | 161° |
| 2026-05-07 17:29 | 48.78682 | 44.35213 | 467 ft | 0 kts | 161° |
| 2026-05-07 17:30 | 48.78669 | 44.35220 | 467 ft | 8 kts | 161° |
| 2026-05-07 17:31 | 48.78566 | 44.35238 | 467 ft | 16 kts | 216° |
| 2026-05-07 17:31 | 48.78513 | 44.35090 | 464 ft | 21 kts | 245° |
| 2026-05-07 17:31 | 48.78332 | 44.34507 | 456 ft | 99 kts | 243° |
| 2026-05-07 17:31 | 48.77927 | 44.33250 | 430 ft | 163 kts | 245° |
| 2026-05-07 17:32 | 48.77397 | 44.31583 | 848 ft | 181 kts | 247° |
| 2026-05-07 17:32 | 48.77010 | 44.29827 | 1766 ft | 179 kts | 254° |
| 2026-05-07 17:32 | 48.76581 | 44.28084 | 2512 ft | 181 kts | 255° |
| 2026-05-07 17:32 | 48.76408 | 44.26854 | 2936 ft | 181 kts | 271° |
| 2026-05-07 17:33 | 48.76482 | 44.24182 | 3621 ft | 196 kts | 289° |
| 2026-05-07 17:33 | 48.77074 | 44.22183 | 3952 ft | 227 kts | 301° |
| 2026-05-07 17:33 | 48.77853 | 44.20042 | 3960 ft | 227 kts | 303° |
| 2026-05-07 17:33 | 48.78909 | 44.18375 | 4433 ft | 219 kts | 330° |
| 2026-05-07 17:34 | 48.80373 | 44.17735 | 5352 ft | 229 kts | 354° |
| 2026-05-07 17:34 | 48.81964 | 44.17970 | 5998 ft | 242 kts | 12° |
| 2026-05-07 17:34 | 48.83574 | 44.18741 | 6231 ft | 239 kts | 12° |
| 2026-05-07 17:34 | 48.85235 | 44.19388 | 6373 ft | 256 kts | 13° |
| 2026-05-07 17:35 | 48.86876 | 44.20394 | 6811 ft | 260 kts | 25° |
| 2026-05-07 17:35 | 48.88419 | 44.21873 | 7288 ft | 268 kts | 31° |
| 2026-05-07 17:35 | 48.89949 | 44.23540 | 7761 ft | 274 kts | 33° |
| 2026-05-07 17:35 | 48.91470 | 44.25244 | 8263 ft | 273 kts | 32° |
| 2026-05-07 17:36 | 48.92972 | 44.26934 | 8764 ft | 269 kts | 33° |
| 2026-05-07 17:36 | 48.94456 | 44.28634 | 9270 ft | 270 kts | 34° |
| 2026-05-07 17:36 | 48.95975 | 44.30373 | 9770 ft | 274 kts | 34° |
| 2026-05-07 17:36 | 48.97475 | 44.32104 | 10231 ft | 273 kts | 34° |
| 2026-05-07 17:37 | 48.99003 | 44.33863 | 10764 ft | 280 kts | 34° |
| 2026-05-07 17:37 | 49.00546 | 44.35648 | 11240 ft | 275 kts | 34° |
| 2026-05-07 17:37 | 49.02078 | 44.37421 | 11749 ft | 278 kts | 34° |
| 2026-05-07 17:37 | 49.03628 | 44.39208 | 12278 ft | 280 kts | 34° |
| 2026-05-07 17:38 | 49.05167 | 44.40988 | 12791 ft | 283 kts | 34° |
| 2026-05-07 17:38 | 49.06718 | 44.42786 | 13282 ft | 284 kts | 35° |
| 2026-05-07 17:38 | 49.08295 | 44.44612 | 13776 ft | 285 kts | 35° |
| 2026-05-07 17:38 | 49.09894 | 44.46462 | 14278 ft | 296 kts | 35° |
| 2026-05-07 17:39 | 49.11562 | 44.48399 | 14770 ft | 309 kts | 35° |
| 2026-05-07 17:39 | 49.13302 | 44.50418 | 15276 ft | 321 kts | 35° |
| 2026-05-07 17:39 | 49.15101 | 44.52511 | 15775 ft | 332 kts | 36° |
| 2026-05-07 17:39 | 49.16958 | 44.54671 | 16275 ft | 338 kts | 36° |
| 2026-05-07 17:40 | 49.18830 | 44.56850 | 16757 ft | 340 kts | 36° |
| 2026-05-07 17:40 | 49.20719 | 44.59053 | 16886 ft | 346 kts | 36° |
| 2026-05-07 17:40 | 49.22591 | 44.61243 | 16880 ft | 339 kts | 36° |
| 2026-05-07 17:40 | 49.24458 | 44.63431 | 16889 ft | 338 kts | 36° |
| 2026-05-07 17:41 | 49.26327 | 44.65622 | 16890 ft | 341 kts | 37° |
| 2026-05-07 17:41 | 49.28222 | 44.67843 | 16888 ft | 341 kts | 37° |
| 2026-05-07 17:41 | 49.30092 | 44.70041 | 16886 ft | 338 kts | 37° |
| 2026-05-07 17:41 | 49.31957 | 44.72233 | 16886 ft | 340 kts | 37° |
| 2026-05-07 17:42 | 49.33823 | 44.74426 | 16884 ft | 340 kts | 37° |
| 2026-05-07 17:42 | 49.35689 | 44.76616 | 16897 ft | 339 kts | 37° |
| 2026-05-07 17:42 | 49.37545 | 44.78797 | 17280 ft | 337 kts | 37° |
| 2026-05-07 17:42 | 49.39431 | 44.81014 | 17617 ft | 347 kts | 37° |
| 2026-05-07 17:43 | 49.41367 | 44.83287 | 17948 ft | 347 kts | 37° |
| 2026-05-07 17:43 | 49.43272 | 44.85534 | 18281 ft | 348 kts | 37° |
| 2026-05-07 17:43 | 49.45166 | 44.87779 | 18613 ft | 347 kts | 37° |
| 2026-05-07 17:43 | 49.47082 | 44.90051 | 18949 ft | 350 kts | 37° |
| 2026-05-07 17:44 | 49.49018 | 44.92333 | 19285 ft | 352 kts | 37° |
| 2026-05-07 17:44 | 49.50969 | 44.94634 | 19621 ft | 355 kts | 37° |
| 2026-05-07 17:44 | 49.52938 | 44.96967 | 19962 ft | 358 kts | 37° |
| 2026-05-07 17:44 | 49.54911 | 44.99307 | 20299 ft | 361 kts | 37° |
| 2026-05-07 17:45 | 49.56911 | 45.01679 | 20642 ft | 362 kts | 37° |
| 2026-05-07 17:45 | 49.58876 | 45.04012 | 20979 ft | 363 kts | 37° |
| 2026-05-07 17:45 | 49.60887 | 45.06403 | 21321 ft | 366 kts | 37° |
| 2026-05-07 17:45 | 49.62913 | 45.08813 | 21664 ft | 369 kts | 37° |
| 2026-05-07 17:46 | 49.64926 | 45.11237 | 22034 ft | 371 kts | 37° |
| 2026-05-07 17:46 | 49.67080 | 45.13443 | 22431 ft | 373 kts | 28° |
| 2026-05-07 17:46 | 49.69487 | 45.14940 | 22829 ft | 377 kts | 17° |
| 2026-05-07 17:46 | 49.71996 | 45.16024 | 23225 ft | 379 kts | 16° |
| 2026-05-07 17:47 | 49.74528 | 45.17132 | 23613 ft | 381 kts | 16° |
| 2026-05-07 17:47 | 49.77084 | 45.18288 | 24002 ft | 383 kts | 16° |
| 2026-05-07 17:47 | 49.79638 | 45.19440 | 24384 ft | 384 kts | 15° |
| 2026-05-07 17:47 | 49.82205 | 45.20589 | 24776 ft | 384 kts | 15° |
| 2026-05-07 17:48 | 49.84770 | 45.21721 | 25173 ft | 386 kts | 15° |
| 2026-05-07 17:48 | 49.87324 | 45.22837 | 25567 ft | 388 kts | 15° |
| 2026-05-07 17:48 | 49.89944 | 45.23983 | 25967 ft | 390 kts | 15° |
| 2026-05-07 17:48 | 49.92562 | 45.25132 | 26365 ft | 393 kts | 15° |
| 2026-05-07 17:49 | 49.95184 | 45.26283 | 26759 ft | 395 kts | 15° |
| 2026-05-07 17:49 | 49.97823 | 45.27445 | 27156 ft | 398 kts | 15° |
| 2026-05-07 17:49 | 50.00498 | 45.28627 | 27557 ft | 400 kts | 15° |
| 2026-05-07 17:49 | 50.03171 | 45.29749 | 27954 ft | 401 kts | 12° |
| 2026-05-07 17:50 | 50.05889 | 45.30674 | 28360 ft | 402 kts | 11° |
| 2026-05-07 17:50 | 50.08615 | 45.31558 | 28763 ft | 403 kts | 11° |
| 2026-05-07 17:50 | 50.11385 | 45.32478 | 29169 ft | 404 kts | 11° |
| 2026-05-07 17:50 | 50.14108 | 45.33393 | 29569 ft | 405 kts | 11° |
| 2026-05-07 17:51 | 50.16867 | 45.34329 | 29972 ft | 405 kts | 11° |
| 2026-05-07 17:51 | 50.19564 | 45.35243 | 30723 ft | 396 kts | 11° |
| 2026-05-07 17:51 | 50.22212 | 45.36146 | 31655 ft | 381 kts | 11° |
| 2026-05-07 17:51 | 50.24732 | 45.37015 | 32574 ft | 366 kts | 11° |
| 2026-05-07 17:52 | 50.27186 | 45.37860 | 32923 ft | 367 kts | 11° |
| 2026-05-07 17:52 | 50.29728 | 45.38726 | 32910 ft | 376 kts | 11° |
| 2026-05-07 17:52 | 50.34940 | 45.40502 | 32914 ft | 394 kts | 11° |
| 2026-05-07 17:53 | 50.40376 | 45.42354 | 32916 ft | 411 kts | 11° |
| 2026-05-07 17:53 | 50.43196 | 45.43321 | 33123 ft | 413 kts | 11° |
| 2026-05-07 17:53 | 50.45973 | 45.44276 | 33525 ft | 411 kts | 11° |
| 2026-05-07 17:54 | 50.48703 | 45.45226 | 34357 ft | 397 kts | 11° |
| 2026-05-07 17:54 | 50.51379 | 45.46160 | 34860 ft | 391 kts | 11° |
| 2026-05-07 17:54 | 50.56766 | 45.48005 | 34930 ft | 403 kts | 11° |
| 2026-05-07 17:55 | 50.62320 | 45.49936 | 34929 ft | 417 kts | 11° |
| 2026-05-07 17:55 | 50.68009 | 45.51912 | 34926 ft | 424 kts | 12° |
| 2026-05-07 17:56 | 50.73745 | 45.53911 | 34929 ft | 420 kts | 12° |
| 2026-05-07 17:56 | 50.79391 | 45.55896 | 34932 ft | 419 kts | 12° |
| 2026-05-07 17:57 | 50.84147 | 45.57589 | 34933 ft | 421 kts | 12° |
| 2026-05-07 17:57 | 50.90803 | 45.59974 | 34932 ft | 420 kts | 12° |
| 2026-05-07 17:58 | 50.96462 | 45.62014 | 34930 ft | 422 kts | 12° |
| 2026-05-07 17:58 | 51.02150 | 45.64407 | 34926 ft | 423 kts | 19° |
| 2026-05-07 17:59 | 51.07516 | 45.68034 | 34922 ft | 421 kts | 24° |
| 2026-05-07 17:59 | 51.12825 | 45.71851 | 34923 ft | 420 kts | 25° |
| 2026-05-07 18:00 | 51.16805 | 45.74761 | 34918 ft | 419 kts | 25° |
| 2026-05-07 18:01 | 51.22523 | 45.78994 | 34910 ft | 422 kts | 26° |
| 2026-05-07 18:01 | 51.27827 | 45.82970 | 34910 ft | 423 kts | 26° |
| 2026-05-07 18:02 | 51.35780 | 45.88972 | 34911 ft | 422 kts | 26° |
| 2026-05-07 18:03 | 51.41038 | 45.92969 | 34904 ft | 423 kts | 26° |
| 2026-05-07 18:03 | 51.46349 | 45.97002 | 34900 ft | 425 kts | 26° |
| 2026-05-07 18:04 | 51.51639 | 46.01036 | 34897 ft | 425 kts | 26° |
| 2026-05-07 18:04 | 51.56987 | 46.05141 | 34900 ft | 422 kts | 27° |
| 2026-05-07 18:05 | 51.62199 | 46.09423 | 34906 ft | 422 kts | 28° |
| 2026-05-07 18:05 | 51.67446 | 46.13762 | 34909 ft | 427 kts | 28° |
| 2026-05-07 18:06 | 51.72717 | 46.18124 | 34907 ft | 426 kts | 28° |
| 2026-05-07 18:06 | 51.77927 | 46.22441 | 34910 ft | 424 kts | 27° |
| 2026-05-07 18:07 | 51.83179 | 46.26804 | 34912 ft | 426 kts | 27° |
| 2026-05-07 18:07 | 51.88450 | 46.31190 | 34916 ft | 429 kts | 28° |
| 2026-05-07 18:08 | 51.93749 | 46.35604 | 34912 ft | 429 kts | 28° |
| 2026-05-07 18:08 | 51.99037 | 46.40031 | 34915 ft | 432 kts | 28° |
| 2026-05-07 18:09 | 52.04382 | 46.44516 | 34911 ft | 430 kts | 28° |
| 2026-05-07 18:09 | 52.09660 | 46.48960 | 34916 ft | 428 kts | 27° |
| 2026-05-07 18:10 | 52.14946 | 46.53543 | 34917 ft | 433 kts | 27° |
| 2026-05-07 18:10 | 52.20184 | 46.58088 | 34901 ft | 427 kts | 27° |
| 2026-05-07 18:11 | 52.25503 | 46.62642 | 34908 ft | 438 kts | 26° |
| 2026-05-07 18:11 | 52.30958 | 46.67196 | 34914 ft | 443 kts | 27° |
| 2026-05-07 18:12 | 52.36384 | 46.71729 | 34919 ft | 437 kts | 27° |
| 2026-05-07 18:12 | 52.41776 | 46.76247 | 34926 ft | 437 kts | 27° |
| 2026-05-07 18:13 | 52.47164 | 46.80772 | 34930 ft | 438 kts | 27° |
| 2026-05-07 18:13 | 52.52601 | 46.85371 | 34933 ft | 438 kts | 27° |
| 2026-05-07 18:14 | 52.57974 | 46.90012 | 34936 ft | 437 kts | 28° |
| 2026-05-07 18:14 | 52.63300 | 46.94684 | 34942 ft | 436 kts | 28° |
| 2026-05-07 18:15 | 52.68632 | 46.99348 | 34951 ft | 436 kts | 28° |
| 2026-05-07 18:15 | 52.73972 | 47.04010 | 34950 ft | 437 kts | 28° |
| 2026-05-07 18:16 | 52.79349 | 47.08703 | 34946 ft | 437 kts | 28° |
| 2026-05-07 18:16 | 52.84687 | 47.13376 | 34945 ft | 436 kts | 28° |
| 2026-05-07 18:17 | 52.89998 | 47.18051 | 34944 ft | 434 kts | 28° |
| 2026-05-07 18:17 | 52.95306 | 47.22738 | 34935 ft | 434 kts | 27° |
| 2026-05-07 18:18 | 53.00636 | 47.27434 | 34945 ft | 436 kts | 27° |
| 2026-05-07 18:18 | 53.05970 | 47.32151 | 34945 ft | 437 kts | 27° |
| 2026-05-07 18:19 | 53.11319 | 47.36894 | 34944 ft | 436 kts | 27° |
| 2026-05-07 18:19 | 53.16651 | 47.41639 | 34943 ft | 435 kts | 27° |
| 2026-05-07 18:20 | 53.21983 | 47.46395 | 34940 ft | 435 kts | 27° |
| 2026-05-07 18:20 | 53.27311 | 47.51141 | 34939 ft | 435 kts | 28° |
| 2026-05-07 18:21 | 53.32614 | 47.55907 | 34940 ft | 434 kts | 28° |
| 2026-05-07 18:21 | 53.37930 | 47.60700 | 34946 ft | 435 kts | 27° |
| 2026-05-07 18:22 | 53.43300 | 47.65543 | 34942 ft | 437 kts | 28° |
| 2026-05-07 18:22 | 53.48695 | 47.70161 | 34938 ft | 437 kts | 23° |
| 2026-05-07 18:23 | 53.54327 | 47.73888 | 34943 ft | 434 kts | 21° |
| 2026-05-07 18:23 | 53.59882 | 47.77557 | 34946 ft | 432 kts | 22° |
| 2026-05-07 18:24 | 53.65482 | 47.81290 | 34947 ft | 434 kts | 22° |
| 2026-05-07 18:24 | 53.71169 | 47.84695 | 34942 ft | 436 kts | 15° |
| 2026-05-07 18:25 | 53.77009 | 47.87203 | 34940 ft | 431 kts | 13° |
| 2026-05-07 18:25 | 53.82689 | 47.90069 | 34929 ft | 427 kts | 21° |
| 2026-05-07 18:26 | 53.88165 | 47.93942 | 34936 ft | 430 kts | 22° |
| 2026-05-07 18:26 | 53.93663 | 47.97908 | 34935 ft | 430 kts | 22° |
| 2026-05-07 18:27 | 53.99097 | 48.01892 | 34933 ft | 428 kts | 23° |
| 2026-05-07 18:27 | 54.04541 | 48.05956 | 34938 ft | 429 kts | 23° |
| 2026-05-07 18:28 | 54.09978 | 48.10088 | 34938 ft | 431 kts | 23° |
| 2026-05-07 18:28 | 54.15430 | 48.14234 | 34945 ft | 431 kts | 23° |
| 2026-05-07 18:29 | 54.20882 | 48.18396 | 34942 ft | 430 kts | 23° |
| 2026-05-07 18:29 | 54.23626 | 48.20493 | 34783 ft | 434 kts | 23° |
| 2026-05-07 18:29 | 54.26360 | 48.22639 | 34282 ft | 437 kts | 26° |
| 2026-05-07 18:29 | 54.29001 | 48.25055 | 33767 ft | 433 kts | 28° |
| 2026-05-07 18:30 | 54.31622 | 48.27588 | 33237 ft | 429 kts | 29° |
| 2026-05-07 18:30 | 54.34177 | 48.30044 | 32722 ft | 426 kts | 29° |
| 2026-05-07 18:30 | 54.36772 | 48.32526 | 32205 ft | 432 kts | 29° |
| 2026-05-07 18:30 | 54.39404 | 48.35044 | 31682 ft | 435 kts | 29° |
| 2026-05-07 18:31 | 54.42036 | 48.37553 | 31041 ft | 435 kts | 29° |
| 2026-05-07 18:31 | 54.44658 | 48.40043 | 30390 ft | 433 kts | 29° |
| 2026-05-07 18:31 | 54.47277 | 48.42543 | 29716 ft | 431 kts | 30° |
| 2026-05-07 18:31 | 54.49860 | 48.45032 | 29049 ft | 432 kts | 30° |
| 2026-05-07 18:32 | 54.52475 | 48.47579 | 28372 ft | 434 kts | 30° |
| 2026-05-07 18:32 | 54.55108 | 48.50157 | 27695 ft | 434 kts | 30° |
| 2026-05-07 18:32 | 54.57729 | 48.52731 | 27023 ft | 435 kts | 30° |
| 2026-05-07 18:32 | 54.60334 | 48.55289 | 26358 ft | 436 kts | 30° |
| 2026-05-07 18:33 | 54.62976 | 48.57879 | 25685 ft | 436 kts | 29° |
| 2026-05-07 18:33 | 54.65583 | 48.60437 | 25020 ft | 436 kts | 29° |
| 2026-05-07 18:33 | 54.68178 | 48.62980 | 24353 ft | 432 kts | 29° |
| 2026-05-07 18:33 | 54.70790 | 48.65535 | 23681 ft | 427 kts | 30° |
| 2026-05-07 18:34 | 54.73333 | 48.68025 | 23066 ft | 421 kts | 30° |
| 2026-05-07 18:34 | 54.75839 | 48.70488 | 22918 ft | 406 kts | 30° |
| 2026-05-07 18:34 | 54.78263 | 48.72872 | 22939 ft | 407 kts | 30° |
| 2026-05-07 18:34 | 54.80740 | 48.75309 | 22940 ft | 408 kts | 30° |
| 2026-05-07 18:35 | 54.83146 | 48.77683 | 22930 ft | 394 kts | 30° |
| 2026-05-07 18:35 | 54.85521 | 48.80033 | 22930 ft | 388 kts | 30° |
| 2026-05-07 18:35 | 54.87865 | 48.82370 | 22938 ft | 395 kts | 30° |
| 2026-05-07 18:35 | 54.90255 | 48.84743 | 22779 ft | 398 kts | 30° |
| 2026-05-07 18:36 | 54.92642 | 48.87107 | 22519 ft | 392 kts | 30° |
| 2026-05-07 18:36 | 54.94969 | 48.89416 | 22258 ft | 388 kts | 30° |
| 2026-05-07 18:36 | 54.97332 | 48.91766 | 21945 ft | 388 kts | 30° |
| 2026-05-07 18:36 | 54.99670 | 48.94093 | 21922 ft | 384 kts | 30° |
| 2026-05-07 18:37 | 55.01981 | 48.96387 | 21931 ft | 388 kts | 30° |
| 2026-05-07 18:37 | 55.04342 | 48.98741 | 21925 ft | 390 kts | 30° |
| 2026-05-07 18:37 | 55.06649 | 49.01054 | 21926 ft | 387 kts | 30° |
| 2026-05-07 18:37 | 55.08978 | 49.03399 | 21931 ft | 387 kts | 30° |
| 2026-05-07 18:38 | 55.11301 | 49.05735 | 21928 ft | 388 kts | 30° |
| 2026-05-07 18:38 | 55.13630 | 49.08071 | 21930 ft | 387 kts | 28° |
| 2026-05-07 18:38 | 55.16060 | 49.10133 | 21927 ft | 386 kts | 22° |
| 2026-05-07 18:38 | 55.18590 | 49.11650 | 21932 ft | 386 kts | 13° |
| 2026-05-07 18:39 | 55.21205 | 49.12542 | 21931 ft | 386 kts | 9° |
| 2026-05-07 18:39 | 55.23841 | 49.13326 | 21928 ft | 385 kts | 9° |
| 2026-05-07 18:39 | 55.26491 | 49.14139 | 21934 ft | 385 kts | 9° |
| 2026-05-07 18:39 | 55.29118 | 49.14949 | 21932 ft | 386 kts | 9° |
| 2026-05-07 18:40 | 55.31769 | 49.15764 | 21938 ft | 384 kts | 9° |
| 2026-05-07 18:40 | 55.34362 | 49.16555 | 21940 ft | 383 kts | 9° |
| 2026-05-07 18:40 | 55.36977 | 49.17346 | 21844 ft | 385 kts | 9° |
| 2026-05-07 18:40 | 55.39630 | 49.18164 | 21338 ft | 375 kts | 9° |
| 2026-05-07 18:41 | 55.42088 | 49.18928 | 20823 ft | 350 kts | 9° |
| 2026-05-07 18:41 | 55.44413 | 49.19591 | 20295 ft | 329 kts | 4° |
| 2026-05-07 18:41 | 55.46606 | 49.19606 | 19762 ft | 311 kts | 353° |
| 2026-05-07 18:41 | 55.48662 | 49.18915 | 19251 ft | 296 kts | 341° |
| 2026-05-07 18:42 | 55.50503 | 49.17587 | 18786 ft | 284 kts | 330° |
| 2026-05-07 18:42 | 55.52042 | 49.15519 | 18334 ft | 277 kts | 308° |
| 2026-05-07 18:42 | 55.53014 | 49.12585 | 17937 ft | 282 kts | 289° |
| 2026-05-07 18:42 | 55.53383 | 49.09195 | 17258 ft | 285 kts | 275° |
| 2026-05-07 18:43 | 55.53466 | 49.05744 | 16662 ft | 281 kts | 274° |
| 2026-05-07 18:43 | 55.53539 | 49.02338 | 16086 ft | 276 kts | 274° |
| 2026-05-07 18:43 | 55.53615 | 48.99013 | 15456 ft | 273 kts | 274° |
| 2026-05-07 18:43 | 55.53687 | 48.95733 | 14802 ft | 270 kts | 274° |
| 2026-05-07 18:44 | 55.53763 | 48.92451 | 14219 ft | 268 kts | 274° |
| 2026-05-07 18:44 | 55.53843 | 48.89172 | 13637 ft | 267 kts | 274° |
| 2026-05-07 18:44 | 55.53923 | 48.85924 | 13032 ft | 265 kts | 274° |
| 2026-05-07 18:44 | 55.53998 | 48.82714 | 12419 ft | 262 kts | 274° |
| 2026-05-07 18:45 | 55.54072 | 48.79559 | 11957 ft | 255 kts | 274° |
| 2026-05-07 18:45 | 55.54141 | 48.76432 | 11952 ft | 258 kts | 274° |
| 2026-05-07 18:45 | 55.54337 | 48.73298 | 11943 ft | 261 kts | 283° |
| 2026-05-07 18:45 | 55.54726 | 48.70135 | 11687 ft | 266 kts | 284° |
| 2026-05-07 18:46 | 55.55117 | 48.66992 | 11121 ft | 267 kts | 284° |
| 2026-05-07 18:46 | 55.55512 | 48.63765 | 10518 ft | 275 kts | 284° |
| 2026-05-07 18:46 | 55.55924 | 48.60414 | 9914 ft | 283 kts | 284° |
| 2026-05-07 18:46 | 55.56330 | 48.57074 | 9292 ft | 276 kts | 284° |
| 2026-05-07 18:47 | 55.56839 | 48.53957 | 8942 ft | 255 kts | 299° |
| 2026-05-07 18:47 | 55.57868 | 48.51531 | 8935 ft | 242 kts | 322° |
| 2026-05-07 18:47 | 55.59340 | 48.50097 | 8936 ft | 245 kts | 345° |
| 2026-05-07 18:47 | 55.61011 | 48.49618 | 8938 ft | 245 kts | 354° |
| 2026-05-07 18:48 | 55.62717 | 48.49343 | 8933 ft | 246 kts | 354° |
| 2026-05-07 18:48 | 55.64403 | 48.49072 | 8934 ft | 245 kts | 354° |
| 2026-05-07 18:48 | 55.66101 | 48.48797 | 8934 ft | 245 kts | 354° |
| 2026-05-07 18:48 | 55.67802 | 48.48521 | 8933 ft | 246 kts | 354° |
| 2026-05-07 18:49 | 55.69504 | 48.48255 | 8932 ft | 246 kts | 358° |
| 2026-05-07 18:49 | 55.71151 | 48.48808 | 8926 ft | 249 kts | 29° |
| 2026-05-07 18:49 | 55.72356 | 48.51012 | 8821 ft | 259 kts | 63° |
| 2026-05-07 18:49 | 55.72670 | 48.54129 | 8313 ft | 262 kts | 99° |
| 2026-05-07 18:50 | 55.71977 | 48.56926 | 7844 ft | 258 kts | 127° |
| 2026-05-07 18:50 | 55.70792 | 48.59279 | 7360 ft | 258 kts | 130° |
| 2026-05-07 18:50 | 55.69727 | 48.61768 | 6865 ft | 255 kts | 121° |
| 2026-05-07 18:50 | 55.68845 | 48.64475 | 6368 ft | 252 kts | 115° |
| 2026-05-07 18:51 | 55.68107 | 48.67222 | 5978 ft | 245 kts | 112° |
| 2026-05-07 18:51 | 55.67429 | 48.69995 | 5943 ft | 247 kts | 111° |
| 2026-05-07 18:51 | 55.66786 | 48.72798 | 5944 ft | 247 kts | 110° |
| 2026-05-07 18:51 | 55.66160 | 48.75625 | 5940 ft | 247 kts | 109° |
| 2026-05-07 18:52 | 55.65549 | 48.78451 | 5937 ft | 246 kts | 109° |
| 2026-05-07 18:52 | 55.64938 | 48.81284 | 5942 ft | 245 kts | 109° |
| 2026-05-07 18:52 | 55.64334 | 48.84109 | 5931 ft | 245 kts | 109° |
| 2026-05-07 18:52 | 55.63740 | 48.86906 | 5972 ft | 246 kts | 109° |